createdAt,value
2023-05-09T00:01:23.424Z,6.30
2023-05-09T00:03:55.988Z,6.30
2023-05-09T00:06:28.179Z,6.30
2023-05-09T00:08:59.275Z,6.20
2023-05-09T00:11:29.636Z,6.20
2023-05-09T00:14:00.282Z,6.20
2023-05-09T00:16:33.135Z,6.20
2023-05-09T00:19:05.648Z,6.20
2023-05-09T00:21:36.219Z,6.20
2023-05-09T00:24:08.024Z,6.20
2023-05-09T00:26:38.604Z,6.10
2023-05-09T00:29:09.410Z,6.20
2023-05-09T00:31:40.010Z,6.10
2023-05-09T00:34:12.268Z,6.10
2023-05-09T00:36:42.680Z,6.10
2023-05-09T00:39:13.557Z,6.00
2023-05-09T00:41:44.032Z,6.00
2023-05-09T00:44:14.951Z,5.90
2023-05-09T00:46:45.612Z,6.00
2023-05-09T00:49:17.953Z,6.00
2023-05-09T00:51:49.560Z,6.00
2023-05-09T00:54:20.573Z,5.90
2023-05-09T00:56:50.883Z,5.90
2023-05-09T00:59:22.177Z,5.90
2023-05-09T01:01:53.417Z,5.80
2023-05-09T01:04:26.628Z,5.80
2023-05-09T01:07:07.632Z,5.70
2023-05-09T01:09:47.895Z,5.70
2023-05-09T01:12:35.443Z,5.60
2023-05-09T01:15:13.748Z,5.60
2023-05-09T01:17:54.201Z,5.70
2023-05-09T01:20:35.041Z,5.80
2023-05-09T01:23:31.867Z,5.80
2023-05-09T01:26:06.281Z,5.70
2023-05-09T01:28:56.242Z,5.70
2023-05-09T01:31:30.068Z,5.70
2023-05-09T01:34:03.961Z,5.60
2023-05-09T01:36:38.694Z,5.50
2023-05-09T01:39:12.509Z,5.50
2023-05-09T01:41:43.451Z,5.50
2023-05-09T01:44:15.224Z,5.50
2023-05-09T01:46:49.008Z,5.40
2023-05-09T01:49:21.667Z,5.40
2023-05-09T01:51:54.043Z,5.40
2023-05-09T01:54:26.962Z,5.40
2023-05-09T01:56:59.443Z,5.40
2023-05-09T01:59:31.516Z,5.30
2023-05-09T02:02:05.529Z,5.30
2023-05-09T02:04:38.221Z,5.40
2023-05-09T02:07:09.762Z,5.30
2023-05-09T02:09:40.288Z,5.30
2023-05-09T02:12:11.431Z,5.30
2023-05-09T02:14:42.064Z,5.20
2023-05-09T02:17:17.353Z,5.20
2023-05-09T02:19:47.932Z,5.20
2023-05-09T02:22:19.628Z,5.10
2023-05-09T02:24:50.981Z,5.10
2023-05-09T02:27:23.174Z,5.10
2023-05-09T02:29:59.778Z,5.00
2023-05-09T02:32:35.322Z,5.00
2023-05-09T02:35:09.511Z,5.00
2023-05-09T02:37:40.981Z,4.90
2023-05-09T02:40:12.811Z,4.90
2023-05-09T02:42:44.242Z,4.90
2023-05-09T02:45:16.573Z,4.90
2023-05-09T02:47:50.456Z,4.90
2023-05-09T02:50:22.354Z,4.90
2023-05-09T02:52:53.666Z,4.90
2023-05-09T02:55:24.173Z,4.90
2023-05-09T02:58:09.233Z,4.90
2023-05-09T03:00:43.746Z,4.90
2023-05-09T03:03:19.258Z,4.90
2023-05-09T03:05:49.815Z,4.80
2023-05-09T03:08:20.753Z,4.90
2023-05-09T03:10:51.453Z,4.90
2023-05-09T03:13:22.441Z,4.90
2023-05-09T03:15:52.905Z,5.00
2023-05-09T03:18:25.493Z,4.90
2023-05-09T03:20:56.276Z,5.00
2023-05-09T03:23:27.476Z,5.00
2023-05-09T03:25:58.076Z,5.00
2023-05-09T03:28:29.692Z,4.90
2023-05-09T03:31:04.692Z,4.80
2023-05-09T03:33:36.961Z,4.90
2023-05-09T03:36:08.030Z,5.00
2023-05-09T03:38:39.875Z,5.10
2023-05-09T03:41:10.769Z,5.10
2023-05-09T03:43:42.256Z,5.20
2023-05-09T03:46:12.936Z,5.20
2023-05-09T03:48:46.421Z,5.30
2023-05-09T03:51:17.768Z,5.50
2023-05-09T03:53:49.650Z,5.70
2023-05-09T03:56:20.887Z,5.80
2023-05-09T03:58:55.127Z,5.90
2023-05-09T04:01:26.010Z,6.10
2023-05-09T04:03:59.700Z,6.20
2023-05-09T04:06:33.530Z,6.30
2023-05-09T04:09:07.263Z,6.50
2023-05-09T04:11:38.310Z,6.60
2023-05-09T04:14:14.059Z,6.80
2023-05-09T04:16:44.585Z,6.80
2023-05-09T04:19:16.843Z,7.00
2023-05-09T04:21:47.780Z,7.00
2023-05-09T04:24:18.516Z,7.20
2023-05-09T04:26:51.228Z,7.30
2023-05-09T04:29:26.336Z,7.40
2023-05-09T04:31:59.443Z,7.60
2023-05-09T04:34:32.348Z,7.60
2023-05-09T04:37:08.127Z,7.80
2023-05-09T04:39:39.280Z,7.90
2023-05-09T04:42:18.026Z,8.00
2023-05-09T04:44:49.743Z,8.00
2023-05-09T04:47:20.261Z,8.10
2023-05-09T04:49:52.795Z,8.30
2023-05-09T04:52:23.364Z,8.30
2023-05-09T04:54:54.110Z,8.40
2023-05-09T04:57:26.713Z,8.50
2023-05-09T05:00:00.709Z,8.70
2023-05-09T05:02:32.933Z,8.50
2023-05-09T05:05:11.553Z,8.60
2023-05-09T05:07:45.153Z,8.90
2023-05-09T05:10:22.135Z,9.00
2023-05-09T05:12:57.719Z,9.20
2023-05-09T05:15:28.978Z,9.20
2023-05-09T05:18:01.557Z,9.00
2023-05-09T05:20:41.466Z,9.40
2023-05-09T05:23:15.019Z,9.60
2023-05-09T05:25:46.043Z,9.70
2023-05-09T05:28:19.572Z,9.80
2023-05-09T05:30:51.149Z,10.10
2023-05-09T05:33:21.846Z,10.30
2023-05-09T05:35:57.224Z,10.30
2023-05-09T05:38:27.696Z,10.60
2023-05-09T05:41:00.752Z,10.60
2023-05-09T05:43:34.002Z,10.50
2023-05-09T05:46:06.616Z,10.90
2023-05-09T05:48:38.629Z,11.00
2023-05-09T05:51:11.120Z,11.00
2023-05-09T05:53:43.396Z,11.20
2023-05-09T05:56:18.698Z,11.10
2023-05-09T05:58:49.793Z,11.20
2023-05-09T06:01:23.300Z,11.20
2023-05-09T06:03:55.014Z,11.10
2023-05-09T06:06:31.198Z,11.30
2023-05-09T06:09:02.102Z,11.70
2023-05-09T06:11:32.831Z,11.70
2023-05-09T06:14:04.829Z,11.80
2023-05-09T06:16:43.112Z,11.90
2023-05-09T06:19:13.401Z,12.00
2023-05-09T06:21:46.124Z,11.80
2023-05-09T06:24:31.667Z,12.10
2023-05-09T06:27:06.614Z,12.20
2023-05-09T06:29:37.128Z,12.40
2023-05-09T06:32:08.309Z,12.20
2023-05-09T06:34:42.052Z,12.20
2023-05-09T06:37:14.747Z,12.50
2023-05-09T06:39:45.917Z,12.50
2023-05-09T06:42:16.800Z,12.80
2023-05-09T06:44:48.071Z,13.00
2023-05-09T06:47:18.958Z,12.70
2023-05-09T06:49:49.873Z,12.70
2023-05-09T06:52:22.690Z,12.70
2023-05-09T06:54:55.440Z,12.80
2023-05-09T06:57:26.516Z,12.90
2023-05-09T06:59:57.391Z,12.70
2023-05-09T07:02:28.321Z,12.90
2023-05-09T07:04:58.880Z,13.10
2023-05-09T07:07:31.712Z,13.10
2023-05-09T07:10:11.291Z,13.00
2023-05-09T07:12:43.045Z,13.00
2023-05-09T07:15:14.671Z,13.20
2023-05-09T07:17:49.322Z,13.40
2023-05-09T07:20:20.570Z,13.40
2023-05-09T07:22:52.895Z,13.70
2023-05-09T07:25:24.043Z,13.60
2023-05-09T07:27:54.847Z,13.60
2023-05-09T07:30:25.606Z,13.60
2023-05-09T07:32:56.365Z,13.80
2023-05-09T07:35:27.085Z,14.10
2023-05-09T07:37:59.578Z,13.90
2023-05-09T07:40:29.863Z,13.90
2023-05-09T07:43:00.717Z,14.00
2023-05-09T07:45:31.125Z,14.00
2023-05-09T07:48:01.864Z,14.00
2023-05-09T07:50:32.444Z,13.80
2023-05-09T07:53:04.518Z,14.00
2023-05-09T07:55:35.000Z,14.10
2023-05-09T07:58:05.818Z,14.00
2023-05-09T08:00:36.163Z,14.10
2023-05-09T08:03:06.965Z,14.00
2023-05-09T08:05:37.318Z,14.00
2023-05-09T08:08:09.594Z,14.10
2023-05-09T08:10:39.980Z,14.30
2023-05-09T08:13:10.854Z,14.50
2023-05-09T08:15:41.169Z,14.40
2023-05-09T08:18:12.426Z,14.70
2023-05-09T08:20:43.312Z,14.60
2023-05-09T08:23:15.460Z,14.80
2023-05-09T08:25:46.245Z,15.00
2023-05-09T08:28:17.014Z,14.70
2023-05-09T08:30:47.570Z,14.60
2023-05-09T08:33:18.317Z,14.60
2023-05-09T08:35:53.134Z,14.80
2023-05-09T08:38:25.635Z,15.10
2023-05-09T08:41:01.643Z,15.10
2023-05-09T08:43:34.609Z,15.10
2023-05-09T08:46:09.316Z,14.90
2023-05-09T08:48:41.156Z,15.00
2023-05-09T08:51:12.730Z,15.10
2023-05-09T08:53:45.221Z,15.10
2023-05-09T08:56:15.582Z,15.20
2023-05-09T08:58:46.840Z,15.20
2023-05-09T09:01:18.837Z,15.20
2023-05-09T09:03:50.751Z,15.40
2023-05-09T09:06:22.892Z,15.60
2023-05-09T09:08:58.329Z,15.60
2023-05-09T09:11:30.488Z,15.70
2023-05-09T09:14:07.385Z,15.90
2023-05-09T09:16:39.047Z,16.10
2023-05-09T09:19:14.319Z,15.60
2023-05-09T09:21:48.037Z,15.70
2023-05-09T09:24:24.677Z,15.80
2023-05-09T09:26:55.157Z,16.00
2023-05-09T09:29:28.891Z,15.80
2023-05-09T09:32:02.906Z,16.10
2023-05-09T09:34:33.605Z,16.20
2023-05-09T09:37:07.703Z,16.60
2023-05-09T09:39:40.840Z,16.10
2023-05-09T09:42:14.478Z,16.20
2023-05-09T09:44:45.132Z,16.40
2023-05-09T09:47:15.489Z,16.60
2023-05-09T09:49:48.712Z,16.50
2023-05-09T09:52:27.100Z,16.60
2023-05-09T09:55:01.467Z,16.50
2023-05-09T09:57:41.702Z,16.40
2023-05-09T10:00:14.652Z,16.30
2023-05-09T10:02:53.443Z,16.30
2023-05-09T10:05:26.131Z,16.10
2023-05-09T10:07:59.157Z,16.30
2023-05-09T10:10:33.841Z,16.60
2023-05-09T10:13:06.492Z,16.60
2023-05-09T10:15:52.121Z,16.60
2023-05-09T10:18:30.170Z,16.70
2023-05-09T10:21:03.986Z,16.70
2023-05-09T10:23:42.376Z,16.90
2023-05-09T10:26:20.273Z,16.90
2023-05-09T10:28:54.331Z,16.80
2023-05-09T10:31:28.362Z,16.90
2023-05-09T10:34:03.247Z,17.10
2023-05-09T10:36:34.682Z,17.20
2023-05-09T10:39:05.984Z,17.20
2023-05-09T10:41:40.105Z,17.30
2023-05-09T10:44:11.016Z,17.50
2023-05-09T10:46:42.303Z,17.50
2023-05-09T10:49:13.055Z,17.60
2023-05-09T10:51:43.897Z,17.50
2023-05-09T10:54:30.074Z,17.10
2023-05-09T10:57:03.826Z,17.10
2023-05-09T10:59:40.186Z,17.10
2023-05-09T11:02:15.810Z,17.30
2023-05-09T11:04:46.982Z,17.30
2023-05-09T11:07:30.237Z,17.10
2023-05-09T11:10:10.461Z,17.10
2023-05-09T11:12:58.845Z,17.20
2023-05-09T11:15:30.129Z,17.50
2023-05-09T11:18:08.532Z,17.50
2023-05-09T11:20:45.847Z,17.70
2023-05-09T11:23:19.925Z,17.80
2023-05-09T11:25:51.257Z,18.10
2023-05-09T11:28:32.144Z,17.80
2023-05-09T11:31:12.543Z,17.90
2023-05-09T11:33:45.252Z,18.00
2023-05-09T11:36:20.831Z,17.90
2023-05-09T11:39:03.905Z,18.00
2023-05-09T11:41:42.371Z,18.10
2023-05-09T11:44:19.765Z,18.00
2023-05-09T11:46:50.910Z,17.90
2023-05-09T11:49:21.879Z,18.00
2023-05-09T11:51:52.583Z,18.20
2023-05-09T11:54:26.341Z,18.30
2023-05-09T11:56:56.836Z,18.00
2023-05-09T11:59:29.689Z,18.20
2023-05-09T12:02:05.529Z,18.60
2023-05-09T12:04:36.905Z,18.80
2023-05-09T12:07:07.907Z,18.70
2023-05-09T12:09:39.107Z,18.50
2023-05-09T12:12:13.043Z,18.60
2023-05-09T12:14:45.484Z,18.80
2023-05-09T12:17:16.100Z,18.70
2023-05-09T12:19:47.031Z,18.90
2023-05-09T12:22:17.654Z,18.80
2023-05-09T12:24:48.752Z,18.50
2023-05-09T12:27:19.214Z,18.50
2023-05-09T12:29:53.621Z,18.40
2023-05-09T12:32:25.567Z,18.20
2023-05-09T12:34:57.029Z,18.40
2023-05-09T12:37:27.707Z,18.40
2023-05-09T12:40:08.098Z,18.60
2023-05-09T12:42:40.283Z,18.60
2023-05-09T12:45:14.125Z,18.30
2023-05-09T12:47:45.756Z,18.20
2023-05-09T12:50:16.810Z,18.60
2023-05-09T12:53:02.903Z,18.60
2023-05-09T12:55:41.841Z,18.50
2023-05-09T12:58:16.035Z,18.60
2023-05-09T13:00:48.769Z,18.70
2023-05-09T13:03:27.358Z,18.70
2023-05-09T13:06:02.941Z,18.70
2023-05-09T13:08:33.756Z,19.00
2023-05-09T13:11:15.490Z,19.20
2023-05-09T13:13:47.011Z,19.20
2023-05-09T13:16:19.249Z,19.00
2023-05-09T13:18:49.742Z,19.10
2023-05-09T13:21:20.479Z,18.80
2023-05-09T13:23:52.300Z,18.80
2023-05-09T13:26:23.254Z,19.10
2023-05-09T13:28:53.748Z,19.10
2023-05-09T13:31:26.325Z,19.10
2023-05-09T13:33:57.017Z,18.80
2023-05-09T13:36:27.722Z,19.00
2023-05-09T13:38:58.456Z,19.10
2023-05-09T13:41:31.984Z,19.00
2023-05-09T13:44:02.358Z,19.10
2023-05-09T13:46:34.934Z,19.10
2023-05-09T13:49:05.187Z,19.10
2023-05-09T13:51:36.129Z,19.00
2023-05-09T13:54:12.530Z,19.10
2023-05-09T13:56:44.269Z,19.30
2023-05-09T13:59:14.814Z,19.40
2023-05-09T14:01:46.968Z,19.40
2023-05-09T14:04:17.492Z,19.50
2023-05-09T14:06:48.961Z,19.40
2023-05-09T14:09:19.465Z,19.20
2023-05-09T14:11:51.722Z,19.30
2023-05-09T14:14:23.809Z,19.40
2023-05-09T14:16:56.910Z,19.40
2023-05-09T14:19:28.329Z,19.50
2023-05-09T14:21:59.157Z,19.50
2023-05-09T14:24:30.976Z,19.70
2023-05-09T14:27:02.232Z,19.80
2023-05-09T14:29:33.046Z,19.50
2023-05-09T14:32:07.250Z,19.40
2023-05-09T14:34:37.874Z,19.50
2023-05-09T14:37:13.664Z,19.70
2023-05-09T14:39:45.706Z,19.70
2023-05-09T14:42:16.872Z,19.50
2023-05-09T14:44:47.457Z,19.60
2023-05-09T14:47:19.527Z,19.80
2023-05-09T14:49:50.132Z,19.90
2023-05-09T14:52:21.104Z,19.80
2023-05-09T14:54:51.475Z,19.80
2023-05-09T14:57:23.104Z,19.50
2023-05-09T14:59:53.533Z,19.70
2023-05-09T15:02:26.006Z,19.50
2023-05-09T15:04:57.236Z,19.50
2023-05-09T15:07:28.041Z,19.50
2023-05-09T15:09:58.529Z,19.50
2023-05-09T15:12:29.368Z,19.50
2023-05-09T15:15:12.868Z,19.50
2023-05-09T15:17:45.594Z,19.60
2023-05-09T15:20:17.653Z,19.50
2023-05-09T15:22:50.298Z,19.40
2023-05-09T15:25:22.004Z,19.20
2023-05-09T15:27:52.840Z,19.50
2023-05-09T15:30:23.213Z,19.50
2023-05-09T15:32:55.683Z,19.40
2023-05-09T15:35:26.029Z,19.40
2023-05-09T15:37:57.340Z,19.50
2023-05-09T15:40:28.682Z,19.60
2023-05-09T15:42:59.779Z,19.50
2023-05-09T15:45:45.567Z,19.50
2023-05-09T15:48:18.428Z,19.30
2023-05-09T15:50:49.708Z,19.40
2023-05-09T15:53:21.348Z,19.30
2023-05-09T15:55:51.986Z,19.30
2023-05-09T15:58:22.688Z,19.40
2023-05-09T16:00:53.268Z,19.50
2023-05-09T16:03:26.024Z,20.50
2023-05-09T16:05:56.915Z,21.70
2023-05-09T16:08:27.813Z,22.30
2023-05-09T16:11:01.189Z,23.50
2023-05-09T16:13:34.230Z,23.90
2023-05-09T16:16:06.972Z,24.30
2023-05-09T16:18:39.399Z,25.20
2023-05-09T16:21:09.798Z,25.60
2023-05-09T16:23:40.771Z,25.80
2023-05-09T16:26:11.260Z,26.00
2023-05-09T16:28:42.037Z,26.20
2023-05-09T16:31:13.452Z,26.00
2023-05-09T16:33:47.154Z,25.60
2023-05-09T16:36:17.797Z,25.90
2023-05-09T16:38:48.893Z,26.40
2023-05-09T16:41:20.450Z,26.80
2023-05-09T16:43:51.902Z,26.60
2023-05-09T16:46:24.211Z,26.60
2023-05-09T16:49:00.220Z,26.80
2023-05-09T16:51:34.849Z,26.40
2023-05-09T16:54:20.059Z,26.30
2023-05-09T16:56:59.659Z,26.60
2023-05-09T16:59:45.214Z,26.40
2023-05-09T17:02:20.609Z,26.30
2023-05-09T17:04:56.902Z,25.70
2023-05-09T17:07:46.769Z,24.60
2023-05-09T17:10:21.149Z,24.70
2023-05-09T17:12:54.177Z,25.10
2023-05-09T17:15:30.786Z,24.40
2023-05-09T17:18:03.380Z,24.10
2023-05-09T17:20:47.582Z,23.90
2023-05-09T17:23:22.271Z,23.20
2023-05-09T17:26:10.402Z,22.50
2023-05-09T17:28:43.168Z,21.90
2023-05-09T17:31:22.877Z,21.70
2023-05-09T17:33:53.339Z,20.90
2023-05-09T17:36:26.027Z,21.10
2023-05-09T17:38:56.693Z,21.40
2023-05-09T17:41:27.884Z,21.50
2023-05-09T17:43:58.708Z,21.50
2023-05-09T17:46:29.634Z,21.50
2023-05-09T17:49:00.278Z,21.20
2023-05-09T17:51:32.896Z,21.00
2023-05-09T17:54:04.191Z,20.40
2023-05-09T17:56:35.021Z,19.90
2023-05-09T17:59:05.640Z,19.30
2023-05-09T18:01:36.554Z,18.90
2023-05-09T18:04:07.134Z,18.40
2023-05-09T18:06:39.869Z,17.60
2023-05-09T18:09:10.271Z,17.10
2023-05-09T18:11:41.060Z,16.50
2023-05-09T18:14:13.040Z,15.90
2023-05-09T18:16:43.689Z,15.50
2023-05-09T18:19:14.377Z,15.00
2023-05-09T18:21:46.965Z,14.90
2023-05-09T18:24:19.479Z,14.60
2023-05-09T18:26:50.594Z,14.20
2023-05-09T18:29:21.033Z,14.10
2023-05-09T18:31:51.891Z,13.90
2023-05-09T18:34:22.376Z,13.60
2023-05-09T18:36:54.519Z,13.50
2023-05-09T18:39:24.908Z,13.50
2023-05-09T18:41:55.678Z,13.20
2023-05-09T18:44:26.006Z,13.10
2023-05-09T18:46:58.031Z,12.90
2023-05-09T18:49:28.586Z,12.80
2023-05-09T18:52:01.215Z,12.80
2023-05-09T18:54:31.580Z,12.80
2023-05-09T18:57:03.532Z,12.70
2023-05-09T18:59:34.118Z,12.70
2023-05-09T19:02:04.923Z,12.60
2023-05-09T19:04:35.235Z,12.50
2023-05-09T19:07:09.048Z,12.40
2023-05-09T19:09:39.634Z,12.40
2023-05-09T19:12:10.548Z,12.40
2023-05-09T19:14:41.272Z,12.40
2023-05-09T19:17:12.064Z,12.30
2023-05-09T19:19:42.571Z,12.30
2023-05-09T19:22:15.270Z,12.20
2023-05-09T19:24:45.559Z,12.20
2023-05-09T19:27:16.256Z,12.20
2023-05-09T19:29:49.255Z,12.00
2023-05-09T19:32:20.862Z,12.00
2023-05-09T19:34:52.053Z,12.00
2023-05-09T19:37:24.328Z,11.90
2023-05-09T19:39:55.170Z,11.80
2023-05-09T19:42:25.938Z,11.80
2023-05-09T19:44:58.416Z,11.70
2023-05-09T19:47:29.323Z,11.70
2023-05-09T19:50:00.056Z,11.60
2023-05-09T19:52:36.649Z,11.60
2023-05-09T19:55:09.662Z,11.50
2023-05-09T19:57:43.071Z,11.40
2023-05-09T20:00:18.447Z,11.30
2023-05-09T20:02:49.970Z,11.30
2023-05-09T20:05:20.740Z,11.30
2023-05-09T20:07:53.960Z,11.30
2023-05-09T20:10:26.357Z,11.30
2023-05-09T20:12:59.397Z,11.20
2023-05-09T20:15:30.033Z,11.20
2023-05-09T20:18:07.264Z,11.00
2023-05-09T20:20:40.473Z,11.00
2023-05-09T20:23:12.941Z,11.00
2023-05-09T20:25:44.838Z,11.00
2023-05-09T20:28:20.339Z,11.00
2023-05-09T20:30:51.254Z,10.80
2023-05-09T20:33:22.108Z,10.80
2023-05-09T20:35:52.703Z,10.80
2023-05-09T20:38:25.286Z,10.70
2023-05-09T20:40:59.659Z,10.70
2023-05-09T20:43:30.713Z,10.60
2023-05-09T20:46:01.427Z,10.60
2023-05-09T20:48:32.592Z,10.50
2023-05-09T20:51:03.577Z,10.60
2023-05-09T20:53:38.163Z,10.50
2023-05-09T20:56:09.144Z,10.40
2023-05-09T20:58:41.140Z,10.30
2023-05-09T21:01:11.734Z,10.30
2023-05-09T21:03:42.490Z,10.30
2023-05-09T21:06:13.074Z,10.20
2023-05-09T21:08:45.816Z,10.10
2023-05-09T21:11:18.329Z,10.10
2023-05-09T21:13:51.804Z,10.00
2023-05-09T21:16:22.252Z,10.00
2023-05-09T21:18:53.514Z,9.90
2023-05-09T21:21:25.642Z,9.80
2023-05-09T21:23:58.837Z,9.70
2023-05-09T21:26:29.560Z,9.70
2023-05-09T21:29:02.186Z,9.60
2023-05-09T21:31:32.777Z,9.60
2023-05-09T21:34:10.199Z,9.60
2023-05-09T21:36:42.019Z,9.60
2023-05-09T21:39:14.126Z,9.60
2023-05-09T21:41:45.192Z,9.60
2023-05-09T21:44:18.007Z,9.50
2023-05-09T21:46:48.689Z,9.50
2023-05-09T21:49:21.719Z,9.50
2023-05-09T21:51:52.882Z,9.40
2023-05-09T21:54:25.872Z,9.40
2023-05-09T21:56:57.201Z,9.40
2023-05-09T21:59:29.553Z,9.40
2023-05-09T22:02:00.374Z,9.30
2023-05-09T22:04:31.332Z,9.30
2023-05-09T22:07:02.076Z,9.20
2023-05-09T22:09:34.495Z,9.20
2023-05-09T22:12:05.196Z,9.20
2023-05-09T22:14:42.185Z,9.10
2023-05-09T22:17:15.633Z,9.10
2023-05-09T22:19:46.441Z,9.10
2023-05-09T22:22:16.895Z,9.10
2023-05-09T22:24:49.853Z,9.20
2023-05-09T22:27:20.388Z,9.20
2023-05-09T22:29:51.312Z,9.10
2023-05-09T22:32:21.663Z,9.10
2023-05-09T22:34:54.506Z,8.90
2023-05-09T22:37:25.363Z,8.90
2023-05-09T22:39:57.541Z,9.00
2023-05-09T22:42:29.374Z,8.90
2023-05-09T22:45:00.343Z,8.90
2023-05-09T22:48:56.603Z,8.90
2023-05-09T22:51:27.973Z,9.00
2023-05-09T22:53:58.359Z,9.00
2023-05-09T22:56:30.755Z,9.00
2023-05-09T22:59:01.181Z,9.00
2023-05-09T23:01:32.496Z,8.90
2023-05-09T23:04:03.018Z,8.90
2023-05-09T23:06:34.069Z,9.00
2023-05-09T23:09:04.634Z,9.00
2023-05-09T23:11:36.726Z,8.90
2023-05-09T23:14:07.534Z,9.00
2023-05-09T23:16:38.040Z,9.00
2023-05-09T23:19:08.623Z,9.00
2023-05-09T23:21:39.403Z,8.90
2023-05-09T23:24:10.193Z,8.90
2023-05-09T23:26:42.401Z,8.80
2023-05-09T23:29:13.084Z,8.80
2023-05-09T23:31:44.048Z,8.60
2023-05-09T23:34:14.394Z,8.50
2023-05-09T23:36:45.638Z,8.40
2023-05-09T23:39:17.723Z,8.40
2023-05-09T23:41:49.924Z,8.30
2023-05-09T23:44:20.554Z,8.20
2023-05-09T23:46:51.192Z,8.20
2023-05-09T23:49:21.718Z,8.10
2023-05-09T23:51:53.053Z,8.10
2023-05-09T23:54:25.574Z,8.00
2023-05-09T23:56:58.032Z,7.90
2023-05-09T23:59:28.337Z,8.00
